Flight Briefing for CPX655

Departure Arrival
Key West International Airport (KEYW)
Click to view FAA NOTAMS
Miami International Airport (KMIA)
Click to view FAA NOTAMS
Departure Time Arrival Time
N/A N/A
Aircraft Distance
SF340AF 113nm
Departure METAR Arrival METAR
KEYW 261018Z AUTO 01004KT 10SM SCT010 23/22 A3002 RMK AO2 T02280217 KMIA 260953Z 29003KT 10SM FEW020 21/17 A3000 RMK AO2 SLP160 T02060172
Suggested Route
CARNU DVALL DVALL3


View recent IFR Routes data
Notes



Charts and Procedures

Charts for KEYW
No chart available
Charts for KMIA
No chart available

Windy.com Weather Map